Time;durP1;ratioP1;P1;durP2;ratioP2;P2;SDS_P1;SDS_P2;PMS_P1;PMS_P2;Temp;Humidity;BMP_temperature;BMP_pressure;BME280_temperature;BME280_humidity;BME280_pressure;Samples;Min_cycle;Max_cycle;Signal;HPM_P1;HPM_P2
2023/11/19 00:01:06;;;;;;;31.90;11.10;;;9.40;99.90;;;;;;4904357;29;20045;-86
2023/11/19 00:03:33;;;;;;;30.02;10.27;;;9.30;99.90;;;;;;4941073;29;20048;-86
2023/11/19 00:06:00;;;;;;;27.10;10.77;;;9.30;99.90;;;;;;4923462;29;20048;-86
2023/11/19 00:08:27;;;;;;;23.27;10.52;;;9.30;99.90;;;;;;4927310;29;20494;-86
2023/11/19 00:10:53;;;;;;;25.00;10.88;;;9.40;99.90;;;;;;4941669;29;20124;-86
2023/11/19 00:13:20;;;;;;;31.10;11.40;;;9.40;99.90;;;;;;4907862;29;20127;-86
2023/11/19 00:15:47;;;;;;;27.05;10.55;;;9.50;99.90;;;;;;4917911;29;20041;-86
2023/11/19 00:18:14;;;;;;;31.63;11.25;;;9.80;99.90;;;;;;4917201;29;20409;-86
2023/11/19 00:20:41;;;;;;;26.20;10.93;;;9.50;99.90;;;;;;4916881;29;20096;-86
2023/11/19 00:23:08;;;;;;;24.13;10.00;;;9.70;99.90;;;;;;4916838;29;20040;-86
2023/11/19 00:25:34;;;;;;;22.60;10.20;;;9.90;99.90;;;;;;4927180;29;20047;-86
2023/11/19 00:28:01;;;;;;;25.52;11.25;;;9.70;99.90;;;;;;4930571;29;20131;-86
2023/11/19 00:30:28;;;;;;;27.30;11.40;;;9.80;99.90;;;;;;4916582;29;20409;-86
2023/11/19 00:32:54;;;;;;;25.83;11.20;;;10.00;99.90;;;;;;4916426;29;20192;-86
2023/11/19 00:35:21;;;;;;;24.98;11.23;;;9.90;99.90;;;;;;4943293;29;20048;-86
2023/11/19 00:37:48;;;;;;;30.30;11.43;;;10.50;99.90;;;;;;4917184;29;20048;-86
2023/11/19 00:40:18;;;;;;;30.35;11.77;;;10.10;99.90;;;;;;4915896;29;20040;-86
2023/11/19 00:42:44;;;;;;;21.05;10.55;;;10.10;99.90;;;;;;4923209;29;20040;-86
2023/11/19 00:45:12;;;;;;;26.33;10.52;;;10.20;99.90;;;;;;4921328;29;20055;-86
2023/11/19 00:47:39;;;;;;;28.65;11.00;;;10.20;99.90;;;;;;4931388;29;20140;-86
2023/11/19 00:50:09;;;;;;;26.90;11.48;;;10.60;99.90;;;;;;4940763;29;20505;-86
2023/11/19 00:52:37;;;;;;;28.35;11.23;;;10.20;99.90;;;;;;4949931;29;20040;-85
2023/11/19 00:55:04;;;;;;;26.65;10.35;;;10.30;99.90;;;;;;4919987;29;20100;-86
2023/11/19 00:57:35;;;;;;;28.85;11.25;;;10.30;99.90;;;;;;4915878;29;20104;-86
2023/11/19 01:00:18;;;;;;;22.25;10.52;;;10.30;99.90;;;;;;4944006;29;20556;-86
2023/11/19 01:02:49;;;;;;;23.85;10.07;;;10.40;99.90;;;;;;4934639;29;20047;-86
2023/11/19 01:05:16;;;;;;;24.55;10.45;;;10.40;99.90;;;;;;4922265;29;20050;-86
2023/11/19 01:07:45;;;;;;;23.90;10.77;;;10.80;99.90;;;;;;4924154;29;20049;-86
2023/11/19 01:10:12;;;;;;;36.88;12.15;;;10.40;99.90;;;;;;4928189;29;20052;-86
2023/11/19 01:12:38;;;;;;;27.85;11.23;;;10.50;99.90;;;;;;4920987;29;20044;-84
2023/11/19 01:15:06;;;;;;;24.98;10.32;;;10.40;99.90;;;;;;4930100;29;20490;-84
2023/11/19 01:17:33;;;;;;;27.90;11.32;;;10.40;99.90;;;;;;4903162;29;20044;-84
2023/11/19 01:19:59;;;;;;;25.02;11.00;;;10.50;99.90;;;;;;4915563;29;20554;-84
2023/11/19 01:22:26;;;;;;;26.00;10.43;;;10.40;99.90;;;;;;4930672;29;20044;-84
2023/11/19 01:24:54;;;;;;;30.77;10.80;;;10.50;99.90;;;;;;4915654;29;20052;-84
2023/11/19 01:27:20;;;;;;;26.75;10.68;;;10.50;99.90;;;;;;4923947;29;20055;-84
2023/11/19 01:29:47;;;;;;;25.80;10.98;;;10.40;99.90;;;;;;4927638;29;20496;-84
2023/11/19 01:32:14;;;;;;;24.73;10.25;;;10.50;99.90;;;;;;4915182;29;20044;-84
2023/11/19 01:34:41;;;;;;;32.47;10.55;;;10.60;99.90;;;;;;4933960;29;20040;-84
2023/11/19 01:37:10;;;;;;;32.58;10.80;;;10.60;99.90;;;;;;4921054;29;20055;-84
2023/11/19 01:39:36;;;;;;;32.50;10.20;;;10.60;99.90;;;;;;4949862;29;20130;-84
2023/11/19 01:42:03;;;;;;;31.30;10.40;;;10.70;99.90;;;;;;4935814;29;20123;-84
2023/11/19 01:44:30;;;;;;;33.17;9.10;;;10.70;99.90;;;;;;4930696;29;20052;-84
2023/11/19 01:46:59;;;;;;;31.90;8.55;;;10.80;99.90;;;;;;4902698;29;20101;-84
2023/11/19 01:49:25;;;;;;;25.00;7.95;;;11.10;99.90;;;;;;4923497;29;20040;-84
2023/11/19 01:51:52;;;;;;;35.40;7.57;;;11.00;99.90;;;;;;4919006;29;20041;-84
2023/11/19 01:54:19;;;;;;;36.53;6.60;;;11.00;99.90;;;;;;4915366;29;20514;-84
2023/11/19 01:56:46;;;;;;;28.10;6.32;;;11.10;99.90;;;;;;4930767;29;20036;-84
2023/11/19 01:59:13;;;;;;;38.20;5.75;;;11.10;99.90;;;;;;4914951;29;20494;-84
2023/11/19 02:01:41;;;;;;;32.55;5.93;;;11.10;99.90;;;;;;4917822;29;20056;-84
2023/11/19 02:04:09;;;;;;;42.92;6.28;;;11.40;99.90;;;;;;4930940;29;20053;-84
2023/11/19 02:06:40;;;;;;;28.30;4.80;;;11.10;99.90;;;;;;4934561;29;20044;-84
2023/11/19 02:09:07;;;;;;;27.10;4.88;;;11.20;99.90;;;;;;4930034;29;20044;-84
2023/11/19 02:11:34;;;;;;;29.02;4.40;;;11.20;99.90;;;;;;4934460;29;20044;-83
2023/11/19 02:14:03;;;;;;;28.73;4.47;;;11.20;99.90;;;;;;4921758;29;20517;-84
2023/11/19 02:16:30;;;;;;;29.50;4.35;;;11.20;99.90;;;;;;4914896;29;20131;-84
2023/11/19 02:18:57;;;;;;;31.02;4.97;;;11.20;99.90;;;;;;4931357;29;20565;-84
2023/11/19 02:21:24;;;;;;;33.88;5.10;;;11.20;99.90;;;;;;4917589;29;20119;-84
2023/11/19 02:23:51;;;;;;;35.35;4.15;;;11.20;99.90;;;;;;4924486;29;20910;-84
2023/11/19 02:26:33;;;;;;;24.67;3.95;;;11.20;99.90;;;;;;4914751;29;20135;-84
2023/11/19 02:29:00;;;;;;;35.47;4.22;;;11.20;99.90;;;;;;4914702;29;20051;-84
2023/11/19 02:31:27;;;;;;;28.85;4.38;;;11.20;99.90;;;;;;4914847;29;20048;-84
2023/11/19 02:33:54;;;;;;;38.78;4.88;;;11.20;99.90;;;;;;4929909;29;20494;-84
2023/11/19 02:36:21;;;;;;;40.13;4.55;;;11.30;99.90;;;;;;4914099;29;20417;-84
2023/11/19 02:38:48;;;;;;;29.23;4.32;;;11.30;99.90;;;;;;4927105;29;20047;-84
2023/11/19 02:41:14;;;;;;;33.40;4.20;;;11.30;99.90;;;;;;4922109;29;20079;-83
2023/11/19 02:43:41;;;;;;;25.15;3.70;;;11.20;99.90;;;;;;4919610;29;20056;-84
2023/11/19 02:46:08;;;;;;;36.97;4.38;;;11.20;99.90;;;;;;4914636;29;20413;-84
2023/11/19 02:48:35;;;;;;;38.15;4.20;;;11.40;99.90;;;;;;4915173;29;20107;-84
2023/11/19 02:51:11;;;;;;;38.97;4.35;;;11.20;99.90;;;;;;4933366;29;20147;-84
2023/11/19 02:53:39;;;;;;;36.40;4.45;;;11.30;99.90;;;;;;4918034;29;20044;-84
2023/11/19 02:56:19;;;;;;;28.27;3.70;;;11.30;99.90;;;;;;4918032;29;20071;-84
2023/11/19 02:58:47;;;;;;;32.88;3.80;;;11.30;99.90;;;;;;4917895;29;20043;-84
2023/11/19 03:01:23;;;;;;;28.10;4.50;;;11.30;99.90;;;;;;4933676;29;20056;-84
2023/11/19 03:03:54;;;;;;;;;;;11.30;99.90;;;;;;4929581;29;20044;-84
2023/11/19 03:06:24;;;;;;;34.42;4.07;;;11.20;99.90;;;;;;4929518;29;19919;-84
2023/11/19 03:08:51;;;;;;;39.67;4.28;;;11.40;99.90;;;;;;4912828;29;20099;-84
2023/11/19 03:11:17;;;;;;;28.33;4.85;;;11.20;99.90;;;;;;4905436;29;20132;-84
2023/11/19 03:13:44;;;;;;;31.15;4.53;;;11.30;99.90;;;;;;4917573;29;20125;-84
2023/11/19 03:16:11;;;;;;;29.75;4.20;;;11.30;99.90;;;;;;4930291;29;20052;-84
2023/11/19 03:18:38;;;;;;;28.52;4.40;;;11.30;99.90;;;;;;4917864;29;20125;-84
2023/11/19 03:21:07;;;;;;;31.42;3.75;;;11.40;99.90;;;;;;4933772;29;20051;-84
2023/11/19 03:23:35;;;;;;;31.50;3.88;;;11.20;99.90;;;;;;4936621;29;20047;-84
2023/11/19 03:26:05;;;;;;;31.45;4.68;;;11.50;99.90;;;;;;4936636;29;20188;-84
2023/11/19 03:28:32;;;;;;;32.78;5.05;;;11.40;99.90;;;;;;4936183;29;20073;-84
2023/11/19 03:30:59;;;;;;;34.33;4.70;;;11.30;99.90;;;;;;4921382;29;20087;-85
2023/11/19 03:33:27;;;;;;;34.22;5.10;;;11.30;99.90;;;;;;4932727;29;20072;-85
2023/11/19 03:35:56;;;;;;;39.70;5.50;;;11.40;99.90;;;;;;4920974;29;20045;-84
2023/11/19 03:38:24;;;;;;;37.95;5.00;;;11.30;99.90;;;;;;4923651;29;20040;-84
2023/11/19 03:40:51;;;;;;;41.00;4.95;;;11.50;99.90;;;;;;4935021;29;20048;-84
2023/11/19 03:43:19;;;;;;;32.88;4.78;;;11.50;99.90;;;;;;4921357;29;20466;-84
2023/11/19 03:45:46;;;;;;;26.23;4.32;;;11.50;99.90;;;;;;4927717;29;20041;-83
2023/11/19 03:48:15;;;;;;;27.80;4.10;;;11.40;99.90;;;;;;4916988;29;20533;-84
2023/11/19 03:50:43;;;;;;;30.55;4.70;;;11.40;99.90;;;;;;4917173;29;20041;-83
2023/11/19 03:53:09;;;;;;;36.70;5.13;;;11.40;99.90;;;;;;4917259;29;20044;-84
2023/11/19 03:55:36;;;;;;;33.10;5.28;;;11.40;99.90;;;;;;4916969;29;20041;-84
2023/11/19 03:58:06;;;;;;;31.08;4.20;;;11.30;99.90;;;;;;4917161;29;20096;-84
2023/11/19 04:00:33;;;;;;;40.15;4.53;;;11.80;99.90;;;;;;4916472;29;20104;-84
2023/11/19 04:03:00;;;;;;;38.72;5.07;;;11.90;99.90;;;;;;4916772;29;20049;-85
2023/11/19 04:05:26;;;;;;;35.20;4.18;;;11.70;99.90;;;;;;4917203;29;20044;-84
2023/11/19 04:07:53;;;;;;;40.53;4.50;;;11.30;99.90;;;;;;4917133;29;20055;-84
2023/11/19 04:10:22;;;;;;;29.88;3.88;;;11.40;99.90;;;;;;4917055;29;20509;-84
2023/11/19 04:12:49;;;;;;;27.77;4.47;;;11.40;99.90;;;;;;4916662;29;20434;-85
2023/11/19 04:15:15;;;;;;;33.22;4.25;;;11.50;99.90;;;;;;4918658;29;20048;-83
2023/11/19 04:17:42;;;;;;;31.02;4.68;;;11.40;99.90;;;;;;4920707;29;20123;-84
2023/11/19 04:20:12;;;;;;;25.85;4.53;;;11.40;99.90;;;;;;4929908;29;20040;-84
2023/11/19 04:22:39;;;;;;;30.83;3.90;;;11.40;99.90;;;;;;4920244;29;20488;-85
2023/11/19 04:25:06;;;;;;;26.88;4.43;;;11.40;99.90;;;;;;4916434;29;20135;-85
2023/11/19 04:27:33;;;;;;;34.72;4.78;;;11.50;99.90;;;;;;4920078;29;20053;-84
2023/11/19 04:30:01;;;;;;;31.98;4.90;;;11.50;99.90;;;;;;4916557;29;20051;-85
2023/11/19 04:32:28;;;;;;;27.75;3.90;;;11.80;99.90;;;;;;4916200;29;20131;-84
2023/11/19 04:34:55;;;;;;;25.40;4.18;;;11.50;99.90;;;;;;4916418;29;20084;-85
2023/11/19 04:37:22;;;;;;;32.10;4.63;;;11.50;99.90;;;;;;4916173;29;20051;-84
2023/11/19 04:39:49;;;;;;;28.50;4.32;;;11.50;99.90;;;;;;4925440;29;20036;-84
2023/11/19 04:42:16;;;;;;;33.13;4.75;;;11.50;99.90;;;;;;4922640;29;20366;-84
2023/11/19 04:44:43;;;;;;;36.40;5.25;;;11.50;99.90;;;;;;4925454;29;20132;-84
2023/11/19 04:47:10;;;;;;;35.83;5.20;;;11.50;99.90;;;;;;4931220;29;20131;-84
2023/11/19 04:49:42;;;;;;;39.47;5.65;;;11.50;99.90;;;;;;4916498;29;20040;-85
2023/11/19 04:52:09;;;;;;;31.45;4.82;;;11.50;99.90;;;;;;4916089;29;20109;-85
2023/11/19 04:54:40;;;;;;;36.03;5.13;;;11.50;99.90;;;;;;4916003;29;20127;-84
2023/11/19 04:57:06;;;;;;;26.65;4.28;;;11.50;99.90;;;;;;4916163;29;20036;-84
2023/11/19 04:59:35;;;;;;;27.63;4.10;;;11.50;99.90;;;;;;4915592;29;20131;-85
2023/11/19 05:02:03;;;;;;;26.30;3.95;;;11.50;99.90;;;;;;4922460;29;20071;-85
2023/11/19 05:04:31;;;;;;;27.40;4.68;;;11.50;99.90;;;;;;4921996;29;20056;-85
2023/11/19 05:06:57;;;;;;;33.05;5.03;;;11.60;99.90;;;;;;4915981;29;20053;-85
2023/11/19 05:09:24;;;;;;;32.08;4.40;;;11.50;99.90;;;;;;4932426;29;20413;-85
2023/11/19 05:11:51;;;;;;;25.15;4.10;;;11.40;99.90;;;;;;4926253;29;20075;-85
2023/11/19 05:14:20;;;;;;;32.97;5.00;;;11.90;99.90;;;;;;4918980;29;20050;-85
2023/11/19 05:16:46;;;;;;;33.28;4.60;;;11.40;99.90;;;;;;4924646;29;20561;-85
2023/11/19 05:19:14;;;;;;;36.80;5.13;;;11.40;99.90;;;;;;4918089;29;20128;-85
2023/11/19 05:21:43;;;;;;;39.95;4.85;;;11.30;99.90;;;;;;4915777;29;20569;-84
2023/11/19 05:24:10;;;;;;;26.83;5.00;;;11.40;99.90;;;;;;4903869;29;20543;-84
2023/11/19 05:26:37;;;;;;;34.83;4.70;;;11.30;99.90;;;;;;4915212;29;20132;-85
2023/11/19 05:29:04;;;;;;;27.00;4.68;;;11.40;99.90;;;;;;4934023;29;20051;-85
2023/11/19 05:31:31;;;;;;;29.52;4.65;;;11.30;99.90;;;;;;4915228;29;20083;-85
2023/11/19 05:33:57;;;;;;;32.72;5.15;;;11.40;99.90;;;;;;4930622;29;20068;-84
2023/11/19 05:36:24;;;;;;;36.15;5.35;;;11.40;99.90;;;;;;4915497;29;20056;-85
2023/11/19 05:38:51;;;;;;;40.65;5.07;;;11.70;99.90;;;;;;4927623;29;20048;-84
2023/11/19 05:41:17;;;;;;;30.05;4.30;;;11.30;99.90;;;;;;4922549;29;20461;-84
2023/11/19 05:43:44;;;;;;;33.88;5.00;;;11.30;99.90;;;;;;4919606;29;20059;-84
2023/11/19 05:46:10;;;;;;;33.28;4.97;;;11.60;99.90;;;;;;4915089;29;20078;-85
2023/11/19 05:48:38;;;;;;;33.58;5.18;;;11.20;99.90;;;;;;4915528;29;20044;-84
2023/11/19 05:51:05;;;;;;;30.30;5.22;;;11.40;99.90;;;;;;4915233;29;20072;-85
2023/11/19 05:53:32;;;;;;;34.80;4.88;;;11.30;99.90;;;;;;4927519;29;20112;-85
2023/11/19 05:55:58;;;;;;;34.28;5.07;;;11.40;99.90;;;;;;4915268;29;20494;-84
2023/11/19 05:58:26;;;;;;;35.30;4.93;;;11.20;99.90;;;;;;4914884;29;20040;-85
2023/11/19 06:00:53;;;;;;;29.92;4.95;;;11.20;99.90;;;;;;4924561;29;20059;-84
2023/11/19 06:03:21;;;;;;;28.88;4.47;;;11.20;99.90;;;;;;4917762;29;20036;-85
2023/11/19 06:05:48;;;;;;;33.70;4.88;;;11.20;99.90;;;;;;4915000;29;20072;-85
2023/11/19 06:08:16;;;;;;;35.60;5.30;;;11.20;99.90;;;;;;4930458;29;20041;-85
2023/11/19 06:10:45;;;;;;;31.85;4.18;;;11.50;99.90;;;;;;4915037;29;20049;-84
2023/11/19 06:13:15;;;;;;;28.77;4.35;;;11.30;99.90;;;;;;4921416;29;20053;-85
2023/11/19 06:15:42;;;;;;;31.50;5.03;;;11.20;99.90;;;;;;4919615;29;20478;-84
2023/11/19 06:18:11;;;;;;;26.63;4.57;;;11.20;99.90;;;;;;4930655;29;20119;-85
2023/11/19 06:20:38;;;;;;;37.03;5.20;;;11.30;99.90;;;;;;4914722;29;20401;-85
2023/11/19 06:23:07;;;;;;;34.88;4.60;;;11.30;99.90;;;;;;4935468;29;20040;-85
2023/11/19 06:25:36;;;;;;;38.50;5.55;;;11.20;99.90;;;;;;4942996;29;20105;-84
2023/11/19 06:28:04;;;;;;;45.25;6.15;;;11.20;99.90;;;;;;4906183;29;20040;-84
2023/11/19 06:30:32;;;;;;;29.75;4.85;;;11.20;99.90;;;;;;4918979;29;20044;-85
2023/11/19 06:32:59;;;;;;;35.28;5.60;;;11.20;99.90;;;;;;4924563;29;20496;-85
2023/11/19 06:35:26;;;;;;;32.20;4.95;;;11.20;99.90;;;;;;4952996;29;20095;-84
2023/11/19 06:37:53;;;;;;;32.25;5.03;;;11.10;99.90;;;;;;4918657;29;20048;-85
2023/11/19 06:40:20;;;;;;;38.05;5.03;;;11.20;99.90;;;;;;4924588;29;20079;-85
2023/11/19 06:42:47;;;;;;;32.88;4.80;;;11.20;99.90;;;;;;4918396;29;20068;-85
2023/11/19 06:45:14;;;;;;;29.90;4.80;;;11.10;99.90;;;;;;4919288;29;20090;-85
2023/11/19 06:47:40;;;;;;;34.78;4.85;;;11.10;99.90;;;;;;4937508;29;20040;-85
2023/11/19 06:50:07;;;;;;;42.25;4.68;;;11.10;99.90;;;;;;4923359;29;20045;-84
2023/11/19 06:52:34;;;;;;;33.55;5.45;;;11.00;99.90;;;;;;4918325;29;20044;-85
2023/11/19 06:55:00;;;;;;;38.50;5.38;;;11.10;99.90;;;;;;4934200;29;20051;-84
2023/11/19 06:57:29;;;;;;;31.17;5.18;;;11.00;99.90;;;;;;4917967;29;20049;-84
2023/11/19 06:59:55;;;;;;;33.80;5.18;;;11.00;99.90;;;;;;4932950;29;20064;-85
2023/11/19 07:02:22;;;;;;;31.60;4.85;;;10.90;99.90;;;;;;4927488;29;20049;-85
2023/11/19 07:04:49;;;;;;;34.53;6.05;;;11.00;99.90;;;;;;4917890;29;20093;-85
2023/11/19 07:07:15;;;;;;;30.85;4.78;;;10.90;99.90;;;;;;4917992;29;20131;-85
2023/11/19 07:09:42;;;;;;;26.27;4.78;;;10.90;99.90;;;;;;4933389;29;20096;-85
2023/11/19 07:12:09;;;;;;;35.55;4.40;;;11.00;99.90;;;;;;4917631;29;20598;-85
2023/11/19 07:14:36;;;;;;;33.50;4.85;;;10.90;99.90;;;;;;4907054;29;20044;-85
2023/11/19 07:17:02;;;;;;;40.72;4.38;;;10.80;99.90;;;;;;4917822;29;20041;-85
2023/11/19 07:19:29;;;;;;;27.92;4.35;;;10.90;99.90;;;;;;4917608;29;20036;-85
2023/11/19 07:21:56;;;;;;;35.05;4.80;;;10.90;99.90;;;;;;4918025;29;20036;-85
2023/11/19 07:24:22;;;;;;;33.25;5.38;;;10.80;99.90;;;;;;4920363;29;20040;-85
2023/11/19 07:26:49;;;;;;;35.75;4.53;;;10.80;99.90;;;;;;4917452;29;20561;-84
2023/11/19 07:29:16;;;;;;;31.88;5.32;;;11.00;99.90;;;;;;4918797;29;20052;-85
2023/11/19 07:31:46;;;;;;;33.25;4.93;;;10.80;99.90;;;;;;4936414;29;20040;-84
2023/11/19 07:34:13;;;;;;;26.30;3.85;;;10.80;99.90;;;;;;4920866;29;20476;-84
2023/11/19 07:36:40;;;;;;;32.78;4.65;;;10.80;99.90;;;;;;4933004;29;20045;-84
2023/11/19 07:39:08;;;;;;;44.10;5.68;;;10.80;99.90;;;;;;4917321;29;20041;-84
2023/11/19 07:41:35;;;;;;;34.60;4.88;;;10.80;99.90;;;;;;4917639;29;20119;-85
2023/11/19 07:44:01;;;;;;;32.75;4.57;;;10.70;99.90;;;;;;4932549;29;20222;-85
2023/11/19 07:46:28;;;;;;;26.05;5.25;;;10.70;99.90;;;;;;4919521;29;20049;-85
2023/11/19 07:48:54;;;;;;;44.53;4.78;;;10.70;99.90;;;;;;4933266;29;20100;-85
2023/11/19 07:51:21;;;;;;;36.28;5.05;;;10.70;99.90;;;;;;4917164;29;20426;-85
2023/11/19 07:53:49;;;;;;;37.22;5.05;;;10.70;99.90;;;;;;4916911;29;20044;-85
2023/11/19 07:56:15;;;;;;;34.60;4.68;;;10.70;99.90;;;;;;4917147;29;20040;-85
2023/11/19 07:58:42;;;;;;;33.17;4.60;;;10.70;99.90;;;;;;4929832;29;20051;-86
2023/11/19 08:01:09;;;;;;;36.78;5.10;;;10.80;99.90;;;;;;4922305;29;20498;-86
2023/11/19 08:03:36;;;;;;;36.67;4.47;;;10.90;99.90;;;;;;4930439;29;20039;-87
2023/11/19 08:06:04;;;;;;;31.75;4.85;;;10.60;99.90;;;;;;4914522;29;20048;-86
2023/11/19 08:08:32;;;;;;;36.20;5.28;;;10.70;99.90;;;;;;4917130;29;20052;-86
2023/11/19 08:10:59;;;;;;;26.85;4.50;;;10.60;99.90;;;;;;4916884;29;20040;-87
2023/11/19 08:13:25;;;;;;;35.63;5.57;;;10.60;99.90;;;;;;4929496;29;20047;-86
2023/11/19 08:15:52;;;;;;;34.70;4.68;;;10.80;99.90;;;;;;4919818;29;20047;-86
2023/11/19 08:18:19;;;;;;;36.67;5.07;;;10.60;99.90;;;;;;4929600;29;20043;-87
2023/11/19 08:20:48;;;;;;;42.35;5.15;;;10.70;99.90;;;;;;4941130;29;20043;-85
2023/11/19 08:23:15;;;;;;;27.40;4.97;;;10.80;99.90;;;;;;4928753;29;20032;-87
2023/11/19 08:25:42;;;;;;;32.63;5.03;;;10.80;99.90;;;;;;4930255;29;20045;-86
2023/11/19 08:28:08;;;;;;;29.63;4.22;;;10.80;99.90;;;;;;4939585;29;20496;-87
2023/11/19 08:30:35;;;;;;;32.25;4.43;;;10.80;99.90;;;;;;4919502;29;20052;-86
2023/11/19 08:33:05;;;;;;;27.02;4.13;;;10.80;99.90;;;;;;4918824;29;20413;-87
2023/11/19 08:35:32;;;;;;;34.97;5.35;;;10.80;99.90;;;;;;4916911;29;20048;-86
2023/11/19 08:37:59;;;;;;;32.90;4.90;;;10.80;99.90;;;;;;4932135;29;20577;-86
2023/11/19 08:40:26;;;;;;;36.65;4.50;;;10.90;99.90;;;;;;4932305;29;20131;-86
2023/11/19 08:42:52;;;;;;;28.25;3.75;;;11.00;99.90;;;;;;4916612;29;20574;-86
2023/11/19 08:45:19;;;;;;;40.47;5.60;;;10.90;99.90;;;;;;4933442;29;20076;-86
2023/11/19 08:47:45;;;;;;;29.77;5.75;;;10.90;99.90;;;;;;4915331;29;20512;-86
2023/11/19 08:50:12;;;;;;;31.67;4.63;;;10.90;99.90;;;;;;4931655;29;20111;-85
2023/11/19 08:52:39;;;;;;;30.85;4.95;;;11.10;99.90;;;;;;4916020;29;20387;-86
2023/11/19 08:55:05;;;;;;;32.42;4.90;;;10.90;99.90;;;;;;4933418;29;20049;-86
2023/11/19 08:57:35;;;;;;;31.45;5.22;;;10.90;99.90;;;;;;4924410;29;20045;-86
2023/11/19 09:00:07;;;;;;;37.03;5.18;;;10.90;99.90;;;;;;4922759;29;20048;-86
2023/11/19 09:02:36;;;;;;;35.85;5.28;;;10.90;99.90;;;;;;4916197;29;20406;-87
2023/11/19 09:05:05;;;;;;;38.30;5.35;;;11.00;99.90;;;;;;4935681;29;20474;-86
2023/11/19 09:07:32;;;;;;;29.15;4.97;;;11.00;99.90;;;;;;4931137;29;20087;-86
2023/11/19 09:09:58;;;;;;;33.55;4.75;;;11.00;99.90;;;;;;4914294;29;20072;-87
2023/11/19 09:12:25;;;;;;;32.78;4.45;;;10.80;99.90;;;;;;4920766;29;20068;-87
2023/11/19 09:14:51;;;;;;;35.65;4.60;;;10.90;99.90;;;;;;4930748;29;20053;-86
2023/11/19 09:17:18;;;;;;;35.50;4.50;;;10.90;99.90;;;;;;4915795;29;20505;-86
2023/11/19 09:19:45;;;;;;;32.70;5.03;;;10.90;99.90;;;;;;4915626;29;20124;-87
2023/11/19 09:22:12;;;;;;;28.75;4.95;;;11.00;99.90;;;;;;4920480;29;20115;-86
2023/11/19 09:24:38;;;;;;;28.23;3.92;;;11.10;99.90;;;;;;4928644;29;20127;-86
2023/11/19 09:27:05;;;;;;;33.03;4.53;;;11.00;99.90;;;;;;4912775;29;20128;-87
2023/11/19 09:29:32;;;;;;;35.25;4.78;;;11.40;99.90;;;;;;4917350;29;20849;-87
2023/11/19 09:31:59;;;;;;;31.98;4.88;;;11.00;99.90;;;;;;4915289;29;20540;-86
2023/11/19 09:34:26;;;;;;;40.38;5.72;;;11.00;99.90;;;;;;4921330;29;20076;-85
2023/11/19 09:36:52;;;;;;;27.75;4.40;;;11.30;99.90;;;;;;4915340;29;20505;-85
2023/11/19 09:39:20;;;;;;;36.17;4.47;;;11.30;99.90;;;;;;4916044;29;20039;-87
2023/11/19 09:41:47;;;;;;;31.38;4.43;;;11.10;99.90;;;;;;4915149;29;20131;-85
2023/11/19 09:44:17;;;;;;;34.53;4.63;;;11.30;99.90;;;;;;4930731;29;20123;-86
2023/11/19 09:46:45;;;;;;;32.90;4.68;;;11.10;99.90;;;;;;4931288;29;20557;-86
2023/11/19 09:49:13;;;;;;;28.33;4.82;;;11.30;99.90;;;;;;4918200;29;20052;-86
2023/11/19 09:51:39;;;;;;;37.15;5.07;;;11.20;99.90;;;;;;4918705;29;20044;-87
2023/11/19 09:54:07;;;;;;;28.95;4.75;;;11.40;99.90;;;;;;4920709;29;20044;-87
2023/11/19 09:56:37;;;;;;;29.25;4.85;;;11.40;99.90;;;;;;4915596;29;20095;-87
2023/11/19 09:59:05;;;;;;;30.90;4.63;;;11.60;99.90;;;;;;4915231;29;20096;-86
2023/11/19 10:01:32;;;;;;;32.20;5.35;;;11.40;99.90;;;;;;4915282;29;20144;-86
2023/11/19 10:03:59;;;;;;;35.65;5.68;;;11.40;99.90;;;;;;4915347;29;20055;-88
2023/11/19 10:06:27;;;;;;;26.80;5.00;;;11.40;99.90;;;;;;4916049;29;20044;-86
2023/11/19 10:08:53;;;;;;;24.55;4.35;;;11.40;99.90;;;;;;4923715;29;20491;-86
2023/11/19 10:11:20;;;;;;;35.13;4.97;;;11.50;99.90;;;;;;4916314;29;20048;-87
2023/11/19 10:13:48;;;;;;;36.88;5.78;;;11.50;99.90;;;;;;4925875;29;20047;-86
2023/11/19 10:16:15;;;;;;;27.63;4.38;;;11.50;99.90;;;;;;4915870;29;20068;-85
2023/11/19 10:18:50;;;;;;;32.08;4.85;;;12.10;99.90;;;;;;4914500;29;20501;-86
2023/11/19 10:21:20;;;;;;;30.05;4.63;;;11.60;99.90;;;;;;4912489;29;20044;-85
2023/11/19 10:23:54;;;;;;;33.80;4.78;;;11.60;99.90;;;;;;4924768;29;20490;-85
2023/11/19 10:26:21;;;;;;;32.90;4.97;;;11.70;99.90;;;;;;4926935;29;20040;-86
2023/11/19 10:28:49;;;;;;;34.40;5.38;;;11.80;99.90;;;;;;4925482;29;20076;-86
2023/11/19 10:31:17;;;;;;;29.75;4.10;;;11.70;99.90;;;;;;4930226;29;20405;-86
2023/11/19 10:33:45;;;;;;;43.50;4.72;;;11.70;99.90;;;;;;4929784;29;20049;-86
2023/11/19 10:36:13;;;;;;;34.72;4.88;;;11.60;99.90;;;;;;4930228;29;20490;-86
2023/11/19 10:38:40;;;;;;;29.15;5.07;;;11.60;99.90;;;;;;4919439;29;20075;-86
2023/11/19 10:41:07;;;;;;;33.00;4.55;;;11.60;99.90;;;;;;4914589;29;20040;-87
2023/11/19 10:43:46;;;;;;;36.55;5.40;;;11.60;99.90;;;;;;4927276;29;20048;-86
2023/11/19 10:46:14;;;;;;;33.40;4.35;;;11.60;99.90;;;;;;4943098;29;20045;-86
2023/11/19 10:48:41;;;;;;;31.38;4.68;;;11.50;99.90;;;;;;4925308;29;20036;-86
2023/11/19 10:51:08;;;;;;;33.75;4.68;;;11.50;99.90;;;;;;4914978;29;20041;-88
2023/11/19 10:53:38;;;;;;;33.80;5.82;;;11.40;99.90;;;;;;4913618;29;20129;-86
2023/11/19 10:56:10;;;;;;;37.67;5.80;;;11.90;99.90;;;;;;4905436;29;20060;-86
2023/11/19 10:58:41;;;;;;;38.40;5.10;;;11.30;99.90;;;;;;4914876;29;20188;-86
2023/11/19 11:01:20;;;;;;;25.60;5.78;;;11.30;99.90;;;;;;4929542;29;20064;-86
2023/11/19 11:03:47;;;;;;;33.13;4.25;;;11.20;99.90;;;;;;4945247;29;20071;-87
2023/11/19 11:06:14;;;;;;;28.15;4.00;;;11.20;99.90;;;;;;4914181;29;20043;-88
2023/11/19 11:08:41;;;;;;;27.98;5.22;;;11.10;99.90;;;;;;4914171;29;20044;-86
2023/11/19 11:11:11;;;;;;;26.70;4.20;;;11.10;99.90;;;;;;4924544;29;20462;-87
2023/11/19 11:13:42;;;;;;;39.50;5.20;;;11.10;99.90;;;;;;4933700;29;20041;-87
2023/11/19 11:16:09;;;;;;;40.03;6.75;;;11.10;99.90;;;;;;4946689;29;20112;-88
2023/11/19 11:18:36;;;;;;;38.55;5.57;;;11.30;99.90;;;;;;4918284;29;20067;-87
2023/11/19 11:21:05;;;;;;;31.83;5.07;;;11.20;99.90;;;;;;4918096;29;20041;-86
2023/11/19 11:24:05;;;;;;;39.10;6.05;;;11.10;99.90;;;;;;4917727;29;20055;-86
2023/11/19 11:27:03;;;;;;;42.80;6.38;;;11.10;99.90;;;;;;4933495;29;20044;-86
2023/11/19 11:29:59;;;;;;;37.83;4.40;;;11.10;99.90;;;;;;4930273;29;20048;-87
2023/11/19 11:32:40;;;;;;;31.35;5.15;;;11.10;99.90;;;;;;4917148;29;20528;-87
2023/11/19 11:35:19;;;;;;;31.73;4.38;;;11.30;99.90;;;;;;4917671;29;20049;-87
2023/11/19 11:37:50;;;;;;;33.67;5.03;;;11.20;99.90;;;;;;4917886;29;20075;-87
2023/11/19 11:40:18;;;;;;;26.90;4.38;;;11.30;99.90;;;;;;4918226;29;20045;-87
2023/11/19 11:42:45;;;;;;;28.38;3.95;;;11.40;99.90;;;;;;4917980;29;20062;-88
2023/11/19 11:45:13;;;;;;;37.75;4.70;;;11.80;99.90;;;;;;4945992;29;20048;-87
2023/11/19 11:47:43;;;;;;;31.20;4.13;;;11.90;99.90;;;;;;4917371;29;20048;-88
2023/11/19 11:50:14;;;;;;;31.77;5.22;;;11.50;99.90;;;;;;4917716;29;20059;-87
2023/11/19 11:52:59;;;;;;;30.10;4.38;;;11.50;99.90;;;;;;4918073;29;20142;-87
2023/11/19 11:55:26;;;;;;;37.75;4.35;;;11.50;99.90;;;;;;4917623;29;20045;-87
2023/11/19 11:57:53;;;;;;;37.03;4.60;;;11.50;99.90;;;;;;4928506;29;20168;-86
2023/11/19 12:00:29;;;;;;;24.75;3.83;;;11.50;99.90;;;;;;4933857;29;20562;-87
2023/11/19 12:02:56;;;;;;;22.38;4.22;;;11.50;99.90;;;;;;4933485;29;20048;-88
2023/11/19 12:05:23;;;;;;;38.72;4.57;;;11.50;99.90;;;;;;4922274;29;20107;-87
2023/11/19 12:08:06;;;;;;;29.58;4.35;;;11.80;99.90;;;;;;4922356;29;20128;-87
2023/11/19 12:10:44;;;;;;;37.35;5.60;;;11.40;99.90;;;;;;4917113;29;20044;-86
2023/11/19 12:13:12;;;;;;;35.95;4.93;;;11.50;99.90;;;;;;4917968;29;20044;-87
2023/11/19 12:15:57;;;;;;;27.58;3.90;;;11.50;99.90;;;;;;4922100;29;20097;-87
2023/11/19 12:18:25;;;;;;;31.30;4.78;;;11.50;99.90;;;;;;4917357;29;20045;-87
2023/11/19 12:20:52;;;;;;;28.25;3.70;;;11.60;99.90;;;;;;4928008;29;20044;-88
2023/11/19 12:23:19;;;;;;;29.45;4.95;;;11.50;99.90;;;;;;4918542;29;20112;-87
2023/11/19 12:25:46;;;;;;;26.50;4.15;;;11.70;99.90;;;;;;4917371;29;20048;-86
2023/11/19 12:28:14;;;;;;;24.27;3.95;;;11.60;99.90;;;;;;4929865;29;20044;-88
2023/11/19 12:30:41;;;;;;;28.40;5.18;;;11.40;99.90;;;;;;4922065;29;20409;-87
2023/11/19 12:33:12;;;;;;;27.75;4.40;;;11.40;99.90;;;;;;4924521;29;20044;-87
2023/11/19 12:35:43;;;;;;;34.00;4.68;;;11.40;99.90;;;;;;4932244;29;20048;-86
2023/11/19 12:38:20;;;;;;;28.10;4.10;;;11.50;99.90;;;;;;4916791;29;20040;-88
2023/11/19 12:40:47;;;;;;;30.35;3.95;;;11.60;99.90;;;;;;4917148;29;20188;-87